sensor_id;sensor_type;location;lat;lon;timestamp;P1;durP1;ratioP1;P2;durP2;ratioP2
5491;SDS011;2768;53.540;10.224;2022-11-18T00:00:37;11.90;;;10.53;;
5491;SDS011;2768;53.540;10.224;2022-11-18T00:06:30;11.03;;;9.93;;
5491;SDS011;2768;53.540;10.224;2022-11-18T00:12:24;12.03;;;10.60;;
5491;SDS011;2768;53.540;10.224;2022-11-18T00:18:36;12.03;;;10.83;;
5491;SDS011;2768;53.540;10.224;2022-11-18T00:24:30;12.33;;;11.03;;
5491;SDS011;2768;53.540;10.224;2022-11-18T00:30:24;13.27;;;11.50;;
5491;SDS011;2768;53.540;10.224;2022-11-18T00:36:19;12.80;;;11.30;;
5491;SDS011;2768;53.540;10.224;2022-11-18T00:42:12;12.40;;;10.93;;
5491;SDS011;2768;53.540;10.224;2022-11-18T00:48:23;12.93;;;11.20;;
5491;SDS011;2768;53.540;10.224;2022-11-18T00:54:18;12.27;;;10.97;;
5491;SDS011;2768;53.540;10.224;2022-11-18T01:00:13;14.80;;;11.50;;
5491;SDS011;2768;53.540;10.224;2022-11-18T01:06:06;12.80;;;11.17;;
5491;SDS011;2768;53.540;10.224;2022-11-18T01:12:01;13.30;;;11.47;;
5491;SDS011;2768;53.540;10.224;2022-11-18T01:18:13;13.43;;;11.73;;
5491;SDS011;2768;53.540;10.224;2022-11-18T01:24:08;13.43;;;11.93;;
5491;SDS011;2768;53.540;10.224;2022-11-18T01:30:03;14.43;;;12.93;;
5491;SDS011;2768;53.540;10.224;2022-11-18T01:35:57;13.80;;;12.30;;
5491;SDS011;2768;53.540;10.224;2022-11-18T01:41:50;14.93;;;13.33;;
5491;SDS011;2768;53.540;10.224;2022-11-18T01:47:46;14.90;;;13.40;;
5491;SDS011;2768;53.540;10.224;2022-11-18T01:53:44;16.47;;;13.80;;
5491;SDS011;2768;53.540;10.224;2022-11-18T01:59:41;15.27;;;13.67;;
5491;SDS011;2768;53.540;10.224;2022-11-18T02:05:39;15.63;;;14.03;;
5491;SDS011;2768;53.540;10.224;2022-11-18T02:11:35;15.30;;;13.80;;
5491;SDS011;2768;53.540;10.224;2022-11-18T02:17:47;14.00;;;12.50;;
5491;SDS011;2768;53.540;10.224;2022-11-18T02:23:56;15.23;;;13.67;;
5491;SDS011;2768;53.540;10.224;2022-11-18T02:30:08;13.97;;;12.43;;
5491;SDS011;2768;53.540;10.224;2022-11-18T02:36:04;14.77;;;13.17;;
5491;SDS011;2768;53.540;10.224;2022-11-18T02:42:01;14.80;;;12.83;;
5491;SDS011;2768;53.540;10.224;2022-11-18T02:48:01;14.80;;;13.30;;
5491;SDS011;2768;53.540;10.224;2022-11-18T02:53:59;14.10;;;12.70;;
5491;SDS011;2768;53.540;10.224;2022-11-18T02:59:56;14.03;;;12.53;;
5491;SDS011;2768;53.540;10.224;2022-11-18T03:05:52;14.07;;;12.57;;
5491;SDS011;2768;53.540;10.224;2022-11-18T03:11:55;13.23;;;11.87;;
5491;SDS011;2768;53.540;10.224;2022-11-18T03:17:59;13.40;;;12.00;;
5491;SDS011;2768;53.540;10.224;2022-11-18T03:24:03;12.37;;;11.10;;
5491;SDS011;2768;53.540;10.224;2022-11-18T03:30:04;11.80;;;10.60;;
5491;SDS011;2768;53.540;10.224;2022-11-18T03:36:00;11.20;;;10.10;;
5491;SDS011;2768;53.540;10.224;2022-11-18T03:42:00;10.60;;;9.60;;
5491;SDS011;2768;53.540;10.224;2022-11-18T03:47:59;12.13;;;10.93;;
5491;SDS011;2768;53.540;10.224;2022-11-18T03:53:57;12.70;;;11.07;;
5491;SDS011;2768;53.540;10.224;2022-11-18T04:00:01;11.80;;;10.60;;
5491;SDS011;2768;53.540;10.224;2022-11-18T04:06:00;12.67;;;11.40;;
5491;SDS011;2768;53.540;10.224;2022-11-18T04:12:01;11.60;;;10.50;;
5491;SDS011;2768;53.540;10.224;2022-11-18T04:17:59;12.57;;;11.30;;
5491;SDS011;2768;53.540;10.224;2022-11-18T04:23:52;12.97;;;11.67;;
5491;SDS011;2768;53.540;10.224;2022-11-18T04:29:46;13.17;;;11.77;;
5491;SDS011;2768;53.540;10.224;2022-11-18T04:35:40;12.47;;;11.27;;
5491;SDS011;2768;53.540;10.224;2022-11-18T04:41:34;13.80;;;12.30;;
5491;SDS011;2768;53.540;10.224;2022-11-18T04:47:48;13.37;;;12.07;;
5491;SDS011;2768;53.540;10.224;2022-11-18T04:53:43;15.07;;;13.47;;
5491;SDS011;2768;53.540;10.224;2022-11-18T04:59:36;13.53;;;12.20;;
5491;SDS011;2768;53.540;10.224;2022-11-18T05:05:30;13.30;;;11.90;;
5491;SDS011;2768;53.540;10.224;2022-11-18T05:11:27;14.10;;;12.73;;
5491;SDS011;2768;53.540;10.224;2022-11-18T05:17:37;14.90;;;12.83;;
5491;SDS011;2768;53.540;10.224;2022-11-18T05:23:31;14.63;;;13.13;;
5491;SDS011;2768;53.540;10.224;2022-11-18T05:29:25;14.73;;;13.27;;
5491;SDS011;2768;53.540;10.224;2022-11-18T05:35:19;15.30;;;13.70;;
5491;SDS011;2768;53.540;10.224;2022-11-18T05:41:13;15.73;;;14.13;;
5491;SDS011;2768;53.540;10.224;2022-11-18T05:47:28;14.97;;;13.47;;
5491;SDS011;2768;53.540;10.224;2022-11-18T05:53:42;14.83;;;13.33;;
5491;SDS011;2768;53.540;10.224;2022-11-18T05:59:36;16.33;;;14.50;;
5491;SDS011;2768;53.540;10.224;2022-11-18T06:05:30;16.17;;;13.57;;
5491;SDS011;2768;53.540;10.224;2022-11-18T06:11:23;18.10;;;14.87;;
5491;SDS011;2768;53.540;10.224;2022-11-18T06:17:17;16.97;;;15.17;;
5491;SDS011;2768;53.540;10.224;2022-11-18T06:23:16;15.17;;;13.57;;
5491;SDS011;2768;53.540;10.224;2022-11-18T06:29:11;20.73;;;14.00;;
5491;SDS011;2768;53.540;10.224;2022-11-18T06:35:11;16.03;;;14.37;;
5491;SDS011;2768;53.540;10.224;2022-11-18T06:41:06;16.77;;;14.97;;
5491;SDS011;2768;53.540;10.224;2022-11-18T06:46:59;17.40;;;15.50;;
5491;SDS011;2768;53.540;10.224;2022-11-18T06:52:54;16.90;;;14.80;;
5491;SDS011;2768;53.540;10.224;2022-11-18T06:58:52;17.97;;;15.73;;
5491;SDS011;2768;53.540;10.224;2022-11-18T07:04:46;17.20;;;15.40;;
5491;SDS011;2768;53.540;10.224;2022-11-18T07:10:39;16.73;;;14.83;;
5491;SDS011;2768;53.540;10.224;2022-11-18T07:16:34;16.53;;;14.63;;
5491;SDS011;2768;53.540;10.224;2022-11-18T07:22:28;17.13;;;15.23;;
5491;SDS011;2768;53.540;10.224;2022-11-18T07:28:21;15.60;;;14.00;;
5491;SDS011;2768;53.540;10.224;2022-11-18T07:34:15;16.13;;;14.43;;
5491;SDS011;2768;53.540;10.224;2022-11-18T07:40:09;13.60;;;12.20;;
5491;SDS011;2768;53.540;10.224;2022-11-18T07:46:10;14.43;;;12.90;;
5491;SDS011;2768;53.540;10.224;2022-11-18T07:52:06;14.37;;;12.77;;
5491;SDS011;2768;53.540;10.224;2022-11-18T07:57:59;14.50;;;12.13;;
5491;SDS011;2768;53.540;10.224;2022-11-18T08:03:52;15.07;;;12.40;;
5491;SDS011;2768;53.540;10.224;2022-11-18T08:09:47;12.53;;;11.23;;
5491;SDS011;2768;53.540;10.224;2022-11-18T08:15:40;13.23;;;11.77;;
5491;SDS011;2768;53.540;10.224;2022-11-18T08:21:34;12.13;;;10.53;;
5491;SDS011;2768;53.540;10.224;2022-11-18T08:27:28;13.17;;;11.73;;
5491;SDS011;2768;53.540;10.224;2022-11-18T08:33:23;14.13;;;12.63;;
5491;SDS011;2768;53.540;10.224;2022-11-18T08:39:16;13.43;;;12.03;;
5491;SDS011;2768;53.540;10.224;2022-11-18T08:45:11;13.27;;;11.90;;
5491;SDS011;2768;53.540;10.224;2022-11-18T08:51:07;13.67;;;12.17;;
5491;SDS011;2768;53.540;10.224;2022-11-18T08:57:02;12.93;;;11.50;;
5491;SDS011;2768;53.540;10.224;2022-11-18T09:02:57;13.30;;;11.73;;
5491;SDS011;2768;53.540;10.224;2022-11-18T09:08:51;13.87;;;11.77;;
5491;SDS011;2768;53.540;10.224;2022-11-18T09:14:45;12.90;;;11.50;;
5491;SDS011;2768;53.540;10.224;2022-11-18T09:21:01;13.40;;;11.50;;
5491;SDS011;2768;53.540;10.224;2022-11-18T09:26:57;13.73;;;11.80;;
5491;SDS011;2768;53.540;10.224;2022-11-18T09:32:53;13.30;;;12.00;;
5491;SDS011;2768;53.540;10.224;2022-11-18T09:38:50;12.50;;;10.80;;
5491;SDS011;2768;53.540;10.224;2022-11-18T09:44:48;12.30;;;10.50;;
5491;SDS011;2768;53.540;10.224;2022-11-18T09:50:52;11.90;;;10.70;;
5491;SDS011;2768;53.540;10.224;2022-11-18T09:56:48;11.80;;;10.40;;
5491;SDS011;2768;53.540;10.224;2022-11-18T10:02:51;13.17;;;11.50;;
5491;SDS011;2768;53.540;10.224;2022-11-18T10:08:55;11.00;;;9.90;;
5491;SDS011;2768;53.540;10.224;2022-11-18T10:15:10;9.80;;;8.83;;
5491;SDS011;2768;53.540;10.224;2022-11-18T10:21:14;9.80;;;8.67;;
5491;SDS011;2768;53.540;10.224;2022-11-18T10:27:16;9.93;;;8.97;;
5491;SDS011;2768;53.540;10.224;2022-11-18T10:33:22;9.07;;;8.20;;
5491;SDS011;2768;53.540;10.224;2022-11-18T10:39:18;9.10;;;8.20;;
5491;SDS011;2768;53.540;10.224;2022-11-18T10:45:14;8.87;;;7.97;;
5491;SDS011;2768;53.540;10.224;2022-11-18T10:51:19;7.50;;;6.70;;
5491;SDS011;2768;53.540;10.224;2022-11-18T10:57:14;6.90;;;6.20;;
5491;SDS011;2768;53.540;10.224;2022-11-18T11:03:22;8.30;;;7.47;;
5491;SDS011;2768;53.540;10.224;2022-11-18T11:09:24;9.27;;;7.33;;
5491;SDS011;2768;53.540;10.224;2022-11-18T11:15:20;7.50;;;6.80;;
5491;SDS011;2768;53.540;10.224;2022-11-18T11:21:19;8.13;;;7.23;;
5491;SDS011;2768;53.540;10.224;2022-11-18T11:27:24;7.80;;;7.00;;
5491;SDS011;2768;53.540;10.224;2022-11-18T11:33:54;8.07;;;7.00;;
5491;SDS011;2768;53.540;10.224;2022-11-18T11:39:54;8.07;;;7.27;;
5491;SDS011;2768;53.540;10.224;2022-11-18T11:46:13;8.20;;;6.73;;
5491;SDS011;2768;53.540;10.224;2022-11-18T11:59:04;7.63;;;6.80;;
5491;SDS011;2768;53.540;10.224;2022-11-18T12:05:16;8.87;;;7.07;;
5491;SDS011;2768;53.540;10.224;2022-11-18T12:11:16;8.87;;;7.40;;
5491;SDS011;2768;53.540;10.224;2022-11-18T12:17:14;8.73;;;6.83;;
5491;SDS011;2768;53.540;10.224;2022-11-18T12:23:18;8.97;;;6.90;;
5491;SDS011;2768;53.540;10.224;2022-11-18T12:29:20;8.60;;;7.40;;
5491;SDS011;2768;53.540;10.224;2022-11-18T12:35:22;8.80;;;6.50;;
5491;SDS011;2768;53.540;10.224;2022-11-18T12:48:02;6.70;;;5.40;;
5491;SDS011;2768;53.540;10.224;2022-11-18T12:53:55;6.30;;;5.53;;
5491;SDS011;2768;53.540;10.224;2022-11-18T12:59:50;5.40;;;4.67;;
5491;SDS011;2768;53.540;10.224;2022-11-18T13:05:44;5.00;;;4.30;;
5491;SDS011;2768;53.540;10.224;2022-11-18T13:11:39;4.33;;;3.50;;
5491;SDS011;2768;53.540;10.224;2022-11-18T13:17:38;3.93;;;3.30;;
5491;SDS011;2768;53.540;10.224;2022-11-18T13:23:46;3.60;;;3.30;;
5491;SDS011;2768;53.540;10.224;2022-11-18T13:29:52;3.73;;;2.97;;
5491;SDS011;2768;53.540;10.224;2022-11-18T13:35:55;2.97;;;2.77;;
5491;SDS011;2768;53.540;10.224;2022-11-18T13:41:58;3.83;;;3.10;;
5491;SDS011;2768;53.540;10.224;2022-11-18T13:47:54;3.30;;;3.10;;
5491;SDS011;2768;53.540;10.224;2022-11-18T13:53:52;4.80;;;2.70;;
5491;SDS011;2768;53.540;10.224;2022-11-18T13:59:46;2.73;;;2.53;;
5491;SDS011;2768;53.540;10.224;2022-11-18T14:05:41;3.03;;;2.73;;
5491;SDS011;2768;53.540;10.224;2022-11-18T14:11:36;3.70;;;3.10;;
5491;SDS011;2768;53.540;10.224;2022-11-18T14:17:32;2.53;;;2.10;;
5491;SDS011;2768;53.540;10.224;2022-11-18T14:23:26;3.30;;;2.40;;
5491;SDS011;2768;53.540;10.224;2022-11-18T14:29:23;5.27;;;3.13;;
5491;SDS011;2768;53.540;10.224;2022-11-18T14:35:16;10.13;;;3.57;;
5491;SDS011;2768;53.540;10.224;2022-11-18T14:41:11;2.70;;;2.50;;
5491;SDS011;2768;53.540;10.224;2022-11-18T14:47:09;4.33;;;2.73;;
5491;SDS011;2768;53.540;10.224;2022-11-18T14:53:08;4.10;;;2.90;;
5491;SDS011;2768;53.540;10.224;2022-11-18T14:59:03;3.10;;;2.87;;
5491;SDS011;2768;53.540;10.224;2022-11-18T15:04:57;4.83;;;2.50;;
5491;SDS011;2768;53.540;10.224;2022-11-18T15:10:51;3.80;;;3.50;;
5491;SDS011;2768;53.540;10.224;2022-11-18T15:16:44;3.40;;;2.90;;
5491;SDS011;2768;53.540;10.224;2022-11-18T15:22:39;3.53;;;3.20;;
5491;SDS011;2768;53.540;10.224;2022-11-18T15:28:32;3.90;;;3.57;;
5491;SDS011;2768;53.540;10.224;2022-11-18T15:34:26;2.77;;;2.37;;
5491;SDS011;2768;53.540;10.224;2022-11-18T15:40:21;2.63;;;2.43;;
5491;SDS011;2768;53.540;10.224;2022-11-18T15:46:15;4.87;;;4.37;;
5491;SDS011;2768;53.540;10.224;2022-11-18T15:52:10;5.40;;;4.90;;
5491;SDS011;2768;53.540;10.224;2022-11-18T15:58:05;4.90;;;4.30;;
5491;SDS011;2768;53.540;10.224;2022-11-18T16:03:59;3.70;;;3.40;;
5491;SDS011;2768;53.540;10.224;2022-11-18T16:09:53;5.57;;;3.80;;
5491;SDS011;2768;53.540;10.224;2022-11-18T16:16:05;3.53;;;3.23;;
5491;SDS011;2768;53.540;10.224;2022-11-18T16:21:59;4.50;;;3.80;;
5491;SDS011;2768;53.540;10.224;2022-11-18T16:27:52;4.90;;;4.00;;
5491;SDS011;2768;53.540;10.224;2022-11-18T16:33:47;3.30;;;3.00;;
5491;SDS011;2768;53.540;10.224;2022-11-18T16:39:41;4.00;;;3.17;;
5491;SDS011;2768;53.540;10.224;2022-11-18T16:45:35;2.70;;;2.50;;
5491;SDS011;2768;53.540;10.224;2022-11-18T16:51:30;3.87;;;3.50;;
5491;SDS011;2768;53.540;10.224;2022-11-18T16:57:25;4.07;;;3.67;;
5491;SDS011;2768;53.540;10.224;2022-11-18T17:03:18;4.17;;;3.77;;
5491;SDS011;2768;53.540;10.224;2022-11-18T17:09:14;4.80;;;3.57;;
5491;SDS011;2768;53.540;10.224;2022-11-18T17:15:09;3.70;;;3.40;;
5491;SDS011;2768;53.540;10.224;2022-11-18T17:21:03;2.70;;;2.50;;
5491;SDS011;2768;53.540;10.224;2022-11-18T17:26:59;2.57;;;2.37;;
5491;SDS011;2768;53.540;10.224;2022-11-18T17:32:52;1.67;;;1.57;;
5491;SDS011;2768;53.540;10.224;2022-11-18T17:38:46;2.20;;;2.10;;
5491;SDS011;2768;53.540;10.224;2022-11-18T17:44:42;2.53;;;2.33;;
5491;SDS011;2768;53.540;10.224;2022-11-18T17:50:35;5.60;;;3.37;;
5491;SDS011;2768;53.540;10.224;2022-11-18T17:56:28;3.07;;;2.80;;
5491;SDS011;2768;53.540;10.224;2022-11-18T18:02:22;3.93;;;3.40;;
5491;SDS011;2768;53.540;10.224;2022-11-18T18:08:16;3.77;;;3.47;;
5491;SDS011;2768;53.540;10.224;2022-11-18T18:14:10;3.30;;;3.00;;
5491;SDS011;2768;53.540;10.224;2022-11-18T18:20:07;3.37;;;3.07;;
5491;SDS011;2768;53.540;10.224;2022-11-18T18:26:01;5.17;;;4.77;;
5491;SDS011;2768;53.540;10.224;2022-11-18T18:31:55;5.83;;;4.87;;
5491;SDS011;2768;53.540;10.224;2022-11-18T18:37:51;5.50;;;4.50;;
5491;SDS011;2768;53.540;10.224;2022-11-18T18:43:44;5.23;;;4.73;;
5491;SDS011;2768;53.540;10.224;2022-11-18T18:49:38;4.57;;;4.13;;
5491;SDS011;2768;53.540;10.224;2022-11-18T18:55:33;4.23;;;3.77;;
5491;SDS011;2768;53.540;10.224;2022-11-18T19:01:35;4.33;;;3.73;;
5491;SDS011;2768;53.540;10.224;2022-11-18T19:07:30;3.50;;;3.20;;
5491;SDS011;2768;53.540;10.224;2022-11-18T19:13:32;4.27;;;3.97;;
5491;SDS011;2768;53.540;10.224;2022-11-18T19:19:26;3.93;;;3.63;;
5491;SDS011;2768;53.540;10.224;2022-11-18T19:25:37;5.67;;;5.10;;
5491;SDS011;2768;53.540;10.224;2022-11-18T19:31:32;6.63;;;6.03;;
5491;SDS011;2768;53.540;10.224;2022-11-18T19:37:25;7.40;;;6.70;;
5491;SDS011;2768;53.540;10.224;2022-11-18T19:43:18;5.63;;;5.00;;
5491;SDS011;2768;53.540;10.224;2022-11-18T19:49:13;5.00;;;4.50;;
5491;SDS011;2768;53.540;10.224;2022-11-18T19:55:08;4.73;;;4.23;;
5491;SDS011;2768;53.540;10.224;2022-11-18T20:01:08;5.43;;;4.73;;
5491;SDS011;2768;53.540;10.224;2022-11-18T20:07:05;5.73;;;5.10;;
5491;SDS011;2768;53.540;10.224;2022-11-18T20:12:58;12.33;;;9.47;;
5491;SDS011;2768;53.540;10.224;2022-11-18T20:18:52;9.90;;;7.50;;
5491;SDS011;2768;53.540;10.224;2022-11-18T20:24:48;6.87;;;5.80;;
5491;SDS011;2768;53.540;10.224;2022-11-18T20:30:43;5.70;;;5.20;;
5491;SDS011;2768;53.540;10.224;2022-11-18T20:36:37;16.27;;;9.77;;
5491;SDS011;2768;53.540;10.224;2022-11-18T20:42:32;25.07;;;13.90;;
5491;SDS011;2768;53.540;10.224;2022-11-18T20:48:43;14.47;;;10.17;;
5491;SDS011;2768;53.540;10.224;2022-11-18T20:54:37;9.20;;;7.13;;
5491;SDS011;2768;53.540;10.224;2022-11-18T21:00:32;6.60;;;5.70;;
5491;SDS011;2768;53.540;10.224;2022-11-18T21:06:26;5.23;;;4.40;;
5491;SDS011;2768;53.540;10.224;2022-11-18T21:12:21;5.00;;;4.60;;
5491;SDS011;2768;53.540;10.224;2022-11-18T21:18:16;5.20;;;4.53;;
5491;SDS011;2768;53.540;10.224;2022-11-18T21:24:10;6.23;;;5.63;;
5491;SDS011;2768;53.540;10.224;2022-11-18T21:30:04;6.57;;;5.33;;
5491;SDS011;2768;53.540;10.224;2022-11-18T21:36:00;8.90;;;7.13;;
5491;SDS011;2768;53.540;10.224;2022-11-18T21:41:53;8.97;;;8.03;;
5491;SDS011;2768;53.540;10.224;2022-11-18T21:47:48;10.47;;;7.47;;
5491;SDS011;2768;53.540;10.224;2022-11-18T21:53:42;8.13;;;6.40;;
5491;SDS011;2768;53.540;10.224;2022-11-18T21:59:36;9.77;;;8.70;;
5491;SDS011;2768;53.540;10.224;2022-11-18T22:05:30;7.90;;;7.10;;
5491;SDS011;2768;53.540;10.224;2022-11-18T22:11:25;8.80;;;7.70;;
5491;SDS011;2768;53.540;10.224;2022-11-18T22:17:18;9.00;;;7.20;;
5491;SDS011;2768;53.540;10.224;2022-11-18T22:23:12;7.50;;;6.80;;
5491;SDS011;2768;53.540;10.224;2022-11-18T22:29:07;7.33;;;6.63;;
5491;SDS011;2768;53.540;10.224;2022-11-18T22:35:00;5.97;;;5.40;;
5491;SDS011;2768;53.540;10.224;2022-11-18T22:40:57;6.83;;;6.17;;
5491;SDS011;2768;53.540;10.224;2022-11-18T22:46:53;6.83;;;6.13;;
5491;SDS011;2768;53.540;10.224;2022-11-18T22:52:46;7.10;;;6.40;;
5491;SDS011;2768;53.540;10.224;2022-11-18T22:58:40;6.63;;;5.93;;
5491;SDS011;2768;53.540;10.224;2022-11-18T23:04:35;6.10;;;5.50;;
5491;SDS011;2768;53.540;10.224;2022-11-18T23:10:28;6.10;;;5.50;;
5491;SDS011;2768;53.540;10.224;2022-11-18T23:16:22;5.90;;;5.33;;
5491;SDS011;2768;53.540;10.224;2022-11-18T23:22:17;5.80;;;5.00;;
5491;SDS011;2768;53.540;10.224;2022-11-18T23:28:10;5.50;;;4.90;;
5491;SDS011;2768;53.540;10.224;2022-11-18T23:34:04;6.10;;;5.50;;
5491;SDS011;2768;53.540;10.224;2022-11-18T23:39:59;5.60;;;4.53;;
5491;SDS011;2768;53.540;10.224;2022-11-18T23:45:52;5.60;;;5.10;;
5491;SDS011;2768;53.540;10.224;2022-11-18T23:51:47;5.07;;;4.63;;
5491;SDS011;2768;53.540;10.224;2022-11-18T23:57:41;5.10;;;4.60;;
